Manitowoc, WI

7:37 AM CDT on October 21, 2014 (GMT -0500)
Sheboygan County Memorial | Change Station
CLOSE
Current Station
Airport
Location: Sheboygan,
Elevation: 748 ft
Nearby Weather Stations

Elev 748 ft 43.77 °N, 87.85 °W | Updated 44 minutes ago

Overcast
Overcast
45 °F
Feels Like 39 °F
N
12
Wind Variable Wind from North

Today
High -- | Low -- °F
--% Chance of Precip.
Yesterday
High -- | Low -- °F
Precip. -- in
7:13 AM 5:57 PM
Waning Crescent, 6% visible
Pressure 30.14 in
Visibility 10.0 miles
Clouds Overcast 2800 ft
Windchill 39 °F
Dew Point 37 °F
Humidity 74%
Rainfall 0.00 in
Snow Depth Not available.
UV 0 out of 12
Pollen 1.20 out of 12
Air Quality Not available.
Flu Activity Sporadic
METAR KSBM 211153Z AUTO 35010KT 10SM OVC028 07/03 A3013 RMK AO2 SLP206 T00720028 10072 20061 52021

More Conditions Fewer Conditions

Pressure 30.14 in
Visibility 10.0 miles
Clouds Overcast 2800 ft
Windchill 39 °F
Dew Point 37 °F
Humidity 74%
Rainfall 0.00 in
Snow Depth Not available.
UV 0 out of 12
Pollen 1.20 out of 12
Air Quality Not available.
Flu Activity Sporadic
METAR KSBM 211153Z AUTO 35010KT 10SM OVC028 07/03 A3013 RMK AO2 SLP206 T00720028 10072 20061 52021

More Conditions Fewer Conditions

10-Day Weather Forecast

Almanac

Astronomy

Oct. 21, 2014 Rise Set
Actual Time 7:13 AM CDT 5:57 PM CDT
Civil Twilight 6:43 AM CDT 6:26 PM CDT
Nautical Twilight 6:10 AM CDT 7:00 PM CDT
Astronomical Twilight 5:36 AM CDT 7:33 PM CDT
Moon 4:52 AM CDT 4:54 PM CDT
Length of Visible Light 11h 42m
Length of Day
10h 43m
Tomorrow will be 2m 52s shorter.
Waning Crescent, 6% of the Moon is Illuminated
Today
Waning Crescent
Oct 23
New
Oct 30
First Quarter
Nov 6
Full
Nov 14
Last Quarter

Today's Extremes

State Highs State Lows

Community

WunderPhotos

Upload Photos

1,763,647 photos uploaded!

Nearby

Snow Depth

Station Depth Elevation
No new snow has been reported.

Earthquake Activity

City Distance Mag. Time & Date
No recent earthquake activity has been reported nearby.
Minimum magnitude displayed is 2.5.

Coastal Water Temperatures

Place Temperature
Menominee, MI 52.0 °F

Nearby Weather Stations